Time;durP1;ratioP1;P1;durP2;ratioP2;P2;SDS_P1;SDS_P2;PMS_P1;PMS_P2;Temp;Humidity;BMP_temperature;BMP_pressure;BME280_temperature;BME280_humidity;BME280_pressure;Samples;Min_cycle;Max_cycle;Signal;HPM_P1;HPM_P2
2023/10/04 00:01:06;;;;;;;14.60;5.90;;;;;;;;;;5065211;28;20184;-77
2023/10/04 00:03:32;;;;;;;15.47;6.03;;;;;;;;;;5036346;28;20180;-77
2023/10/04 00:05:59;;;;;;;13.63;5.90;;;;;;;;;;5041217;28;20275;-78
2023/10/04 00:08:25;;;;;;;11.33;4.93;;;;;;;;;;5053486;28;20206;-79
2023/10/04 00:10:51;;;;;;;15.70;5.60;;;;;;;;;;5037108;28;20215;-79
2023/10/04 00:13:17;;;;;;;12.00;4.97;;;;;;;;;;5036112;28;20183;-79
2023/10/04 00:15:44;;;;;;;12.83;5.40;;;;;;;;;;5039356;28;20183;-79
2023/10/04 00:18:10;;;;;;;13.53;5.63;;;;;;;;;;5054695;28;20195;-79
2023/10/04 00:20:36;;;;;;;14.30;6.07;;;;;;;;;;5053386;28;20184;-77
2023/10/04 00:23:04;;;;;;;13.47;5.57;;;;;;;;;;5040118;28;20242;-77
2023/10/04 00:25:31;;;;;;;14.67;6.30;;;;;;;;;;5056442;28;20172;-77
2023/10/04 00:27:57;;;;;;;15.70;5.70;;;;;;;;;;5056076;28;20223;-77
2023/10/04 00:30:25;;;;;;;12.07;5.70;;;;;;;;;;5040515;28;20192;-77
2023/10/04 00:32:52;;;;;;;12.47;5.63;;;;;;;;;;5055831;28;20191;-77
2023/10/04 00:35:19;;;;;;;13.17;5.50;;;;;;;;;;5039656;28;20192;-77
2023/10/04 00:37:45;;;;;;;12.97;5.50;;;;;;;;;;5056447;28;20195;-79
2023/10/04 00:40:13;;;;;;;13.33;5.50;;;;;;;;;;5056452;28;20220;-78
2023/10/04 00:42:40;;;;;;;15.60;5.17;;;;;;;;;;5056230;28;20300;-79
2023/10/04 00:45:09;;;;;;;11.03;4.90;;;;;;;;;;5056011;28;20207;-78
2023/10/04 00:47:36;;;;;;;15.10;4.93;;;;;;;;;;5055863;28;20199;-79
2023/10/04 00:50:14;;;;;;;12.80;5.10;;;;;;;;;;5031447;28;20189;-79
2023/10/04 00:52:42;;;;;;;12.90;4.73;;;;;;;;;;5049171;28;20181;-79
2023/10/04 00:55:09;;;;;;;9.83;4.97;;;;;;;;;;5050214;28;20194;-77
2023/10/04 00:57:35;;;;;;;11.87;5.40;;;;;;;;;;5045757;28;20252;-77
2023/10/04 01:00:08;;;;;;;12.50;5.00;;;;;;;;;;5031243;28;20221;-77
2023/10/04 01:02:36;;;;;;;10.80;4.80;;;;;;;;;;5052168;28;20184;-77
2023/10/04 01:05:02;;;;;;;12.80;5.50;;;;;;;;;;5050137;28;20266;-77
2023/10/04 01:07:30;;;;;;;12.33;5.60;;;;;;;;;;5049373;28;20184;-77
2023/10/04 01:09:56;;;;;;;18.87;5.97;;;;;;;;;;5032715;28;20194;-77
2023/10/04 01:12:23;;;;;;;12.73;5.80;;;;;;;;;;5030440;28;20179;-77
2023/10/04 01:14:53;;;;;;;12.40;5.83;;;;;;;;;;5051440;28;20189;-77
2023/10/04 01:17:19;;;;;;;14.80;5.63;;;;;;;;;;5035478;28;20228;-77
2023/10/04 01:19:45;;;;;;;13.27;5.87;;;;;;;;;;5048871;28;20212;-77
2023/10/04 01:22:11;;;;;;;16.13;5.50;;;;;;;;;;5044869;28;20177;-76
2023/10/04 01:24:41;;;;;;;14.30;5.57;;;;;;;;;;5050928;28;20246;-76
2023/10/04 01:27:10;;;;;;;13.40;5.27;;;;;;;;;;5047195;28;20176;-77
2023/10/04 01:29:38;;;;;;;15.47;6.03;;;;;;;;;;5051772;28;20188;-76
2023/10/04 01:32:08;;;;;;;16.80;5.70;;;;;;;;;;5046721;28;20180;-76
2023/10/04 01:34:36;;;;;;;13.57;5.93;;;;;;;;;;5029556;28;20185;-76
2023/10/04 01:37:03;;;;;;;15.83;5.90;;;;;;;;;;5027533;28;20195;-76
2023/10/04 01:39:30;;;;;;;15.20;5.83;;;;;;;;;;5034006;28;20212;-76
2023/10/04 01:41:56;;;;;;;14.00;6.17;;;;;;;;;;5050464;28;20280;-76
2023/10/04 01:44:22;;;;;;;17.50;6.60;;;;;;;;;;5033242;28;20180;-76
2023/10/04 01:46:48;;;;;;;18.67;7.30;;;;;;;;;;5034870;28;20192;-76
2023/10/04 01:49:14;;;;;;;17.40;6.77;;;;;;;;;;5048462;28;20211;-76
2023/10/04 01:51:42;;;;;;;15.43;6.70;;;;;;;;;;5031221;28;20216;-76
2023/10/04 01:54:09;;;;;;;17.03;6.43;;;;;;;;;;5032557;28;20181;-76
2023/10/04 01:56:37;;;;;;;19.47;6.73;;;;;;;;;;5047080;28;20232;-76
2023/10/04 01:59:04;;;;;;;17.37;6.23;;;;;;;;;;5047871;28;20231;-76
2023/10/04 02:01:31;;;;;;;15.60;6.53;;;;;;;;;;5049816;28;20276;-79
2023/10/04 02:04:00;;;;;;;18.50;6.77;;;;;;;;;;5032227;28;20255;-79
2023/10/04 02:06:28;;;;;;;16.17;6.87;;;;;;;;;;5029627;28;20189;-79
2023/10/04 02:08:54;;;;;;;20.10;6.87;;;;;;;;;;5032528;28;20188;-79
2023/10/04 02:11:22;;;;;;;21.23;7.40;;;;;;;;;;5046466;28;20185;-79
2023/10/04 02:13:48;;;;;;;19.17;7.43;;;;;;;;;;5048835;28;20195;-76
2023/10/04 02:16:21;;;;;;;19.37;6.20;;;;;;;;;;5046841;28;20315;-76
2023/10/04 02:18:48;;;;;;;17.60;7.20;;;;;;;;;;5043367;28;20218;-76
2023/10/04 02:21:16;;;;;;;14.37;6.90;;;;;;;;;;5053736;28;20190;-76
2023/10/04 02:23:42;;;;;;;17.13;6.90;;;;;;;;;;5043454;28;20182;-76
2023/10/04 02:26:09;;;;;;;18.00;7.23;;;;;;;;;;5072178;28;20198;-76
2023/10/04 02:28:36;;;;;;;18.93;6.77;;;;;;;;;;5055665;28;20247;-76
2023/10/04 02:31:02;;;;;;;15.27;7.23;;;;;;;;;;5054073;28;20211;-76
2023/10/04 02:33:33;;;;;;;20.53;6.90;;;;;;;;;;5037567;28;20191;-79
2023/10/04 02:36:00;;;;;;;19.27;7.30;;;;;;;;;;5055162;28;20258;-78
2023/10/04 02:38:27;;;;;;;16.57;6.87;;;;;;;;;;5037338;28;20255;-79
2023/10/04 02:40:56;;;;;;;16.20;6.17;;;;;;;;;;5054314;28;20230;-79
2023/10/04 02:43:25;;;;;;;16.43;6.27;;;;;;;;;;5058725;28;20191;-79
2023/10/04 02:45:52;;;;;;;17.30;6.23;;;;;;;;;;5063109;28;20192;-79
2023/10/04 02:48:19;;;;;;;17.13;6.53;;;;;;;;;;5067408;28;20183;-78
2023/10/04 02:50:46;;;;;;;14.70;5.93;;;;;;;;;;5055746;28;20192;-78
2023/10/04 02:53:20;;;;;;;17.80;6.33;;;;;;;;;;5053853;28;20184;-79
2023/10/04 02:55:46;;;;;;;15.83;6.13;;;;;;;;;;5055489;28;20184;-80
2023/10/04 02:58:13;;;;;;;17.80;7.03;;;;;;;;;;5057237;28;20230;-79
2023/10/04 03:00:45;;;;;;;15.07;6.47;;;;;;;;;;5063623;28;20211;-79
2023/10/04 03:03:13;;;;;;;16.43;6.30;;;;;;;;;;5037172;28;20208;-79
2023/10/04 03:05:40;;;;;;;18.57;6.50;;;;;;;;;;5036791;28;20183;-79
2023/10/04 03:08:07;;;;;;;15.73;6.03;;;;;;;;;;5054838;28;20270;-79
2023/10/04 03:10:40;;;;;;;15.30;5.63;;;;;;;;;;5054055;28;20183;-79
2023/10/04 03:13:15;;;;;;;14.20;5.50;;;;;;;;;;5053770;28;20191;-76
2023/10/04 03:15:46;;;;;;;13.57;5.33;;;;;;;;;;5053109;28;20183;-76
2023/10/04 03:18:18;;;;;;;12.60;5.47;;;;;;;;;;5046597;28;20294;-76
2023/10/04 03:23:29;;;;;;;11.10;4.97;;;;;;;;;;5074375;28;20182;-76
2023/10/04 03:26:00;;;;;;;14.90;5.50;;;;;;;;;;5072458;28;20179;-76
2023/10/04 03:28:26;;;;;;;15.10;5.50;;;;;;;;;;5071170;28;20183;-77
2023/10/04 03:30:56;;;;;;;14.80;5.30;;;;;;;;;;5055639;28;20187;-77
2023/10/04 03:33:22;;;;;;;12.47;5.10;;;;;;;;;;5069244;28;20205;-77
2023/10/04 03:35:48;;;;;;;13.47;4.90;;;;;;;;;;5052422;28;20188;-77
2023/10/04 03:38:15;;;;;;;14.17;5.07;;;;;;;;;;5072807;28;20178;-77
2023/10/04 03:40:41;;;;;;;12.90;5.30;;;;;;;;;;5069804;28;20203;-77
2023/10/04 03:43:08;;;;;;;12.93;5.20;;;;;;;;;;5070881;28;20276;-79
2023/10/04 03:45:41;;;;;;;14.03;5.30;;;;;;;;;;5071453;28;20233;-79
2023/10/04 03:48:15;;;;;;;15.00;5.17;;;;;;;;;;5070299;28;20183;-79
2023/10/04 03:50:48;;;;;;;12.83;5.33;;;;;;;;;;5072800;28;20183;-79
2023/10/04 03:53:15;;;;;;;12.13;5.30;;;;;;;;;;5073633;28;20233;-78
2023/10/04 03:55:46;;;;;;;15.63;5.10;;;;;;;;;;5056964;28;20211;-78
2023/10/04 03:58:12;;;;;;;11.60;5.37;;;;;;;;;;5070861;28;20238;-77
2023/10/04 04:00:39;;;;;;;18.27;5.37;;;;;;;;;;5058744;28;20226;-77
2023/10/04 04:03:06;;;;;;;15.67;5.13;;;;;;;;;;5054001;28;20203;-77
2023/10/04 04:05:38;;;;;;;13.60;5.10;;;;;;;;;;5054845;28;20214;-76
2023/10/04 04:08:04;;;;;;;11.20;5.03;;;;;;;;;;5047846;28;20241;-77
2023/10/04 04:10:31;;;;;;;14.57;5.47;;;;;;;;;;5056852;28;20191;-77
2023/10/04 04:13:01;;;;;;;14.33;5.07;;;;;;;;;;5059859;28;20190;-77
2023/10/04 04:15:28;;;;;;;19.67;5.73;;;;;;;;;;5074569;28;20195;-77
2023/10/04 04:17:55;;;;;;;13.63;5.47;;;;;;;;;;5036776;28;20204;-77
2023/10/04 04:20:23;;;;;;;12.90;5.40;;;;;;;;;;5019657;28;20204;-76
2023/10/04 04:22:56;;;;;;;13.23;5.07;;;;;;;;;;5070173;28;20187;-77
2023/10/04 04:25:26;;;;;;;10.80;4.70;;;;;;;;;;5072865;28;20207;-76
2023/10/04 04:27:53;;;;;;;17.87;5.77;;;;;;;;;;5075574;28;20209;-77
2023/10/04 04:30:21;;;;;;;14.97;5.37;;;;;;;;;;5056380;28;20227;-76
2023/10/04 04:32:57;;;;;;;14.10;5.10;;;;;;;;;;5046865;28;20199;-74
2023/10/04 04:38:22;;;;;;;17.80;6.33;;;;;;;;;;5049401;28;20475;-74
2023/10/04 04:40:49;;;;;;;16.27;5.53;;;;;;;;;;5046410;28;20422;-74
2023/10/04 04:45:51;;;;;;;18.95;6.85;;;;;;;;;;5036865;28;20440;-74
2023/10/04 04:48:18;;;;;;;19.23;6.87;;;;;;;;;;5044670;28;20179;-77
2023/10/04 04:50:44;;;;;;;21.30;6.93;;;;;;;;;;5054986;28;20183;-76
2023/10/04 04:53:18;;;;;;;19.10;6.40;;;;;;;;;;5057171;28;20180;-77
2023/10/04 04:55:44;;;;;;;20.00;6.53;;;;;;;;;;5040548;28;20183;-77
2023/10/04 04:58:13;;;;;;;14.23;5.87;;;;;;;;;;5038916;28;20240;-77
2023/10/04 05:00:42;;;;;;;16.53;6.00;;;;;;;;;;5039743;28;20216;-77
2023/10/04 05:03:08;;;;;;;18.07;5.90;;;;;;;;;;5054813;28;20317;-76
2023/10/04 05:05:34;;;;;;;20.90;6.03;;;;;;;;;;5055160;28;20222;-76
2023/10/04 05:08:00;;;;;;;16.10;5.60;;;;;;;;;;5055710;28;20226;-76
2023/10/04 05:10:34;;;;;;;18.23;6.33;;;;;;;;;;5053112;28;20187;-76
2023/10/04 05:13:00;;;;;;;18.17;6.50;;;;;;;;;;5051905;28;20195;-76
2023/10/04 05:15:33;;;;;;;18.53;6.17;;;;;;;;;;5052226;28;20191;-75
2023/10/04 05:18:15;;;;;;;17.80;5.97;;;;;;;;;;5048632;28;20188;-75
2023/10/04 05:20:41;;;;;;;15.87;5.77;;;;;;;;;;5056253;28;20195;-76
2023/10/04 05:23:09;;;;;;;20.23;6.50;;;;;;;;;;5036965;28;20199;-74
2023/10/04 05:25:36;;;;;;;16.50;6.75;;;;;;;;;;5039191;28;20432;-74
2023/10/04 05:28:06;;;;;;;16.02;7.00;;;;;;;;;;5037663;28;20407;-77
2023/10/04 05:30:33;;;;;;;15.10;6.28;;;;;;;;;;5037342;28;20467;-76
2023/10/04 05:32:59;;;;;;;17.42;6.72;;;;;;;;;;5053829;28;20414;-77
2023/10/04 05:35:26;;;;;;;14.95;6.32;;;;;;;;;;5054139;28;20404;-76
2023/10/04 05:37:52;;;;;;;16.23;5.60;;;;;;;;;;5054802;28;20176;-77
2023/10/04 05:40:28;;;;;;;14.97;5.70;;;;;;;;;;5050193;28;20232;-77
2023/10/04 05:42:54;;;;;;;18.33;7.22;;;;;;;;;;5053199;28;20447;-77
2023/10/04 05:45:25;;;;;;;19.00;7.35;;;;;;;;;;5036881;28;20408;-77
2023/10/04 05:47:51;;;;;;;18.35;7.13;;;;;;;;;;5054337;28;20400;-76
2023/10/04 05:50:23;;;;;;;18.08;6.95;;;;;;;;;;5051047;28;20427;-77
2023/10/04 05:52:50;;;;;;;19.45;7.25;;;;;;;;;;5052340;28;20518;-77
2023/10/04 05:55:17;;;;;;;20.17;7.60;;;;;;;;;;5036081;28;20438;-77
2023/10/04 05:57:52;;;;;;;17.17;7.15;;;;;;;;;;5052498;28;20447;-77
2023/10/04 06:00:37;;;;;;;17.25;7.75;;;;;;;;;;5053007;28;20443;-77
2023/10/04 06:03:06;;;;;;;17.85;7.68;;;;;;;;;;5052425;28;20431;-77
2023/10/04 06:05:34;;;;;;;17.65;7.75;;;;;;;;;;5047743;28;20428;-77
2023/10/04 06:08:05;;;;;;;18.15;7.60;;;;;;;;;;5036962;28;20416;-77
2023/10/04 06:10:32;;;;;;;21.38;7.63;;;;;;;;;;5053604;28;20412;-77
2023/10/04 06:12:58;;;;;;;21.20;8.35;;;;;;;;;;5053670;28;20430;-76
2023/10/04 06:15:25;;;;;;;16.08;7.25;;;;;;;;;;5067857;28;20412;-76
2023/10/04 06:17:51;;;;;;;20.08;8.55;;;;;;;;;;5053020;28;20439;-76
2023/10/04 06:20:25;;;;;;;17.17;7.10;;;;;;;;;;5054580;28;20259;-77
2023/10/04 06:22:59;;;;;;;18.27;8.50;;;;;;;;;;5053846;28;20396;-77
2023/10/04 06:25:25;;;;;;;20.88;8.68;;;;;;;;;;5053992;28;20406;-77
2023/10/04 06:27:55;;;;;;;17.45;8.18;;;;;;;;;;5063144;28;20418;-79
2023/10/04 06:30:22;;;;;;;21.45;8.68;;;;;;;;;;5073124;28;20399;-79
2023/10/04 06:32:52;;;;;;;18.15;8.27;;;;;;;;;;5063722;28;20412;-80
2023/10/04 06:35:22;;;;;;;21.52;8.48;;;;;;;;;;5053771;28;20429;-79
2023/10/04 06:37:49;;;;;;;18.88;8.80;;;;;;;;;;5053043;28;20498;-80
2023/10/04 06:40:19;;;;;;;18.45;8.38;;;;;;;;;;5053109;28;20431;-79
2023/10/04 06:42:45;;;;;;;19.75;8.10;;;;;;;;;;5060912;28;20425;-80
2023/10/04 06:45:16;;;;;;;17.48;7.90;;;;;;;;;;5049446;28;20443;-79
2023/10/04 06:47:45;;;;;;;18.00;7.78;;;;;;;;;;5053509;28;20461;-80
2023/10/04 06:50:16;;;;;;;19.17;8.05;;;;;;;;;;5052808;28;20408;-79
2023/10/04 06:52:43;;;;;;;20.60;7.72;;;;;;;;;;5057100;28;20413;-80
2023/10/04 06:55:11;;;;;;;19.13;8.00;;;;;;;;;;5063720;28;20406;-79
2023/10/04 06:57:37;;;;;;;16.37;8.33;;;;;;;;;;5065260;28;20565;-80
2023/10/04 07:00:12;;;;;;;18.20;8.18;;;;;;;;;;5049563;28;20425;-79
2023/10/04 07:02:40;;;;;;;15.57;7.68;;;;;;;;;;5041548;28;20414;-78
2023/10/04 07:05:08;;;;;;;15.70;6.40;;;;;;;;;;5046005;28;20225;-79
2023/10/04 07:07:34;;;;;;;16.17;7.57;;;;;;;;;;5053575;28;20406;-78
2023/10/04 07:10:01;;;;;;;21.50;8.27;;;;;;;;;;5036318;28;20416;-78
2023/10/04 07:12:28;;;;;;;17.77;7.53;;;;;;;;;;5052245;28;20435;-79
2023/10/04 07:14:54;;;;;;;14.50;6.23;;;;;;;;;;5053338;28;20213;-79
2023/10/04 07:17:20;;;;;;;15.73;7.30;;;;;;;;;;5036332;28;20422;-79
2023/10/04 07:19:46;;;;;;;17.80;7.88;;;;;;;;;;5035827;28;20442;-80
2023/10/04 07:22:12;;;;;;;17.27;7.40;;;;;;;;;;5037200;28;20434;-79
2023/10/04 07:24:37;;;;;;;17.85;7.15;;;;;;;;;;5073822;28;20481;-77
2023/10/04 07:27:04;;;;;;;18.50;7.90;;;;;;;;;;5055387;28;20410;-77
2023/10/04 07:29:30;;;;;;;19.40;7.35;;;;;;;;;;5036160;28;20424;-77
2023/10/04 07:31:56;;;;;;;17.02;7.43;;;;;;;;;;5019886;28;20413;-77
2023/10/04 07:34:28;;;;;;;18.27;7.70;;;;;;;;;;5074193;28;20425;-76
2023/10/04 07:36:55;;;;;;;17.58;7.28;;;;;;;;;;5076579;28;20474;-76
2023/10/04 07:39:21;;;;;;;14.73;7.10;;;;;;;;;;5055875;28;20439;-77
2023/10/04 07:41:47;;;;;;;16.42;7.40;;;;;;;;;;5072654;28;20411;-76
2023/10/04 07:44:13;;;;;;;15.27;7.15;;;;;;;;;;5056615;28;20408;-76
2023/10/04 07:46:41;;;;;;;17.63;6.77;;;;;;;;;;5050256;28;20169;-77
2023/10/04 07:49:08;;;;;;;16.35;7.57;;;;;;;;;;5056304;28;20450;-77
2023/10/04 07:51:34;;;;;;;19.98;7.78;;;;;;;;;;5073125;28;20406;-77
2023/10/04 07:54:00;;;;;;;14.55;7.13;;;;;;;;;;5055743;28;20432;-77
2023/10/04 07:56:27;;;;;;;16.27;7.05;;;;;;;;;;5059160;28;20424;-77
2023/10/04 07:58:53;;;;;;;17.67;6.88;;;;;;;;;;5075309;28;20437;-80
2023/10/04 08:01:19;;;;;;;15.68;7.10;;;;;;;;;;5056989;28;20420;-80
2023/10/04 08:03:45;;;;;;;17.00;6.57;;;;;;;;;;5034500;28;20417;-81
2023/10/04 08:06:11;;;;;;;18.73;6.50;;;;;;;;;;5020074;28;20203;-80
2023/10/04 08:08:41;;;;;;;16.30;6.60;;;;;;;;;;5037803;28;20177;-80
2023/10/04 08:11:11;;;;;;;17.63;6.78;;;;;;;;;;5036281;28;20427;-80
2023/10/04 08:13:38;;;;;;;13.50;6.13;;;;;;;;;;5031997;28;20187;-80
2023/10/04 08:16:05;;;;;;;17.60;6.30;;;;;;;;;;5056196;28;20179;-80
2023/10/04 08:18:31;;;;;;;16.13;7.13;;;;;;;;;;5057783;28;20175;-80
2023/10/04 08:20:57;;;;;;;18.10;6.40;;;;;;;;;;5057200;28;20182;-80
2023/10/04 08:23:23;;;;;;;20.30;6.70;;;;;;;;;;5057400;28;20176;-80
2023/10/04 08:25:49;;;;;;;18.30;6.43;;;;;;;;;;5056025;28;20179;-77
2023/10/04 08:28:16;;;;;;;13.60;5.40;;;;;;;;;;5055815;28;20187;-77
2023/10/04 08:30:42;;;;;;;14.63;6.22;;;;;;;;;;5055461;28;20472;-77
2023/10/04 08:33:08;;;;;;;14.73;5.57;;;;;;;;;;5039379;28;20169;-77
2023/10/04 08:35:39;;;;;;;12.13;5.20;;;;;;;;;;5055379;28;20180;-77
2023/10/04 08:38:05;;;;;;;12.57;5.57;;;;;;;;;;5056253;28;20171;-75
2023/10/04 08:40:35;;;;;;;14.93;6.20;;;;;;;;;;5054480;28;20432;-75
2023/10/04 08:43:02;;;;;;;12.70;5.37;;;;;;;;;;5055480;28;20175;-78
2023/10/04 08:45:33;;;;;;;13.83;5.80;;;;;;;;;;5039473;28;20180;-78
2023/10/04 08:47:59;;;;;;;16.70;6.23;;;;;;;;;;5042597;28;20180;-80
2023/10/04 08:50:36;;;;;;;14.10;5.37;;;;;;;;;;5068370;28;20290;-79
2023/10/04 08:53:06;;;;;;;16.23;5.50;;;;;;;;;;5055874;28;20189;-78
2023/10/04 08:55:45;;;;;;;12.30;5.47;;;;;;;;;;5055234;28;20230;-78
2023/10/04 08:58:11;;;;;;;15.57;5.53;;;;;;;;;;5055001;28;20224;-79
2023/10/04 09:00:43;;;;;;;14.00;5.53;;;;;;;;;;5055161;28;20211;-78
2023/10/04 09:03:09;;;;;;;15.10;5.57;;;;;;;;;;5057144;28;20218;-78
2023/10/04 09:05:36;;;;;;;16.30;5.77;;;;;;;;;;5056457;28;20202;-78
2023/10/04 09:08:04;;;;;;;14.10;5.13;;;;;;;;;;5055011;28;20183;-77
2023/10/04 09:10:33;;;;;;;11.70;5.83;;;;;;;;;;5056450;28;20175;-78
2023/10/04 09:13:01;;;;;;;16.27;5.60;;;;;;;;;;5039100;28;20184;-77
2023/10/04 09:15:27;;;;;;;13.83;5.50;;;;;;;;;;5038709;28;20176;-79
2023/10/04 09:17:57;;;;;;;14.73;5.53;;;;;;;;;;5054985;28;20207;-79
2023/10/04 09:20:31;;;;;;;11.33;5.33;;;;;;;;;;5055310;28;20261;-76
2023/10/04 09:23:00;;;;;;;13.07;5.77;;;;;;;;;;5056377;28;20172;-76
2023/10/04 09:25:40;;;;;;;16.90;5.77;;;;;;;;;;5057062;28;20179;-76
2023/10/04 09:28:09;;;;;;;13.80;5.90;;;;;;;;;;5056569;28;20171;-76
2023/10/04 09:30:38;;;;;;;12.23;5.73;;;;;;;;;;5055479;28;20205;-75
2023/10/04 09:33:05;;;;;;;12.97;5.27;;;;;;;;;;5056762;28;20164;-79
2023/10/04 09:35:42;;;;;;;12.83;5.13;;;;;;;;;;5074761;28;20183;-80
2023/10/04 09:38:16;;;;;;;12.53;5.33;;;;;;;;;;5039809;28;20184;-81
2023/10/04 09:40:51;;;;;;;16.50;5.63;;;;;;;;;;5056111;28;20196;-80
2023/10/04 09:43:18;;;;;;;14.00;5.27;;;;;;;;;;5038495;28;20183;-80
2023/10/04 09:45:59;;;;;;;14.60;5.60;;;;;;;;;;5055787;28;20176;-79
2023/10/04 09:48:31;;;;;;;14.90;5.80;;;;;;;;;;5054726;28;20179;-81
2023/10/04 09:51:01;;;;;;;13.73;5.57;;;;;;;;;;5055092;28;20237;-80
2023/10/04 09:53:28;;;;;;;16.20;6.07;;;;;;;;;;5058162;28;20190;-79
2023/10/04 09:55:55;;;;;;;13.63;6.00;;;;;;;;;;5058472;28;20460;-80
2023/10/04 09:58:24;;;;;;;16.13;5.97;;;;;;;;;;5069812;28;20224;-80
2023/10/04 10:00:52;;;;;;;12.50;5.60;;;;;;;;;;5060764;28;20258;-80
2023/10/04 10:03:20;;;;;;;13.60;5.57;;;;;;;;;;5054495;28;20176;-80
2023/10/04 10:05:47;;;;;;;11.93;5.37;;;;;;;;;;5054610;28;20192;-76
2023/10/04 10:08:13;;;;;;;13.63;5.50;;;;;;;;;;5054528;28;20182;-76
2023/10/04 10:10:41;;;;;;;16.13;5.80;;;;;;;;;;5034584;28;20181;-76
2023/10/04 10:13:09;;;;;;;15.65;6.10;;;;;;;;;;5034131;28;20477;-76
2023/10/04 10:15:37;;;;;;;17.57;5.73;;;;;;;;;;5055729;28;20195;-76
2023/10/04 10:18:04;;;;;;;13.77;5.73;;;;;;;;;;5054325;28;20264;-75
2023/10/04 10:20:30;;;;;;;13.93;5.77;;;;;;;;;;5037911;28;20307;-75
2023/10/04 10:22:59;;;;;;;13.70;5.53;;;;;;;;;;5054529;28;20171;-75
2023/10/04 10:25:37;;;;;;;16.33;6.10;;;;;;;;;;5054581;28;20574;-76
2023/10/04 10:28:03;;;;;;;15.63;5.57;;;;;;;;;;5038511;28;20180;-76
2023/10/04 10:30:33;;;;;;;15.37;5.63;;;;;;;;;;5038183;28;20184;-76
2023/10/04 10:32:59;;;;;;;15.17;6.07;;;;;;;;;;5055719;28;20280;-76
2023/10/04 10:35:44;;;;;;;12.90;5.40;;;;;;;;;;5056311;28;20183;-76
2023/10/04 10:38:29;;;;;;;14.80;5.90;;;;;;;;;;5043933;28;20273;-76
2023/10/04 10:40:55;;;;;;;12.33;5.67;;;;;;;;;;5035116;28;20230;-76
2023/10/04 10:43:21;;;;;;;15.90;5.70;;;;;;;;;;5033771;28;20177;-76
2023/10/04 10:45:47;;;;;;;13.67;5.37;;;;;;;;;;5035547;28;20184;-76
2023/10/04 10:48:14;;;;;;;14.82;6.18;;;;;;;;;;5052726;28;20428;-76
2023/10/04 10:50:43;;;;;;;14.43;5.77;;;;;;;;;;5064372;28;20272;-76
2023/10/04 10:53:10;;;;;;;12.73;5.60;;;;;;;;;;5054708;28;20258;-76
2023/10/04 10:55:40;;;;;;;12.77;5.80;;;;;;;;;;5049456;28;20599;-76
2023/10/04 10:58:07;;;;;;;16.30;6.63;;;;;;;;;;5050712;28;20262;-76
2023/10/04 11:00:34;;;;;;;11.57;5.65;;;;;;;;;;5054177;28;20418;-76
2023/10/04 11:03:01;;;;;;;12.03;5.97;;;;;;;;;;5054845;28;20168;-76
2023/10/04 11:05:27;;;;;;;15.00;5.90;;;;;;;;;;5036762;28;20176;-76
2023/10/04 11:07:54;;;;;;;13.47;6.00;;;;;;;;;;5053883;28;20302;-76
2023/10/04 11:10:23;;;;;;;14.77;5.83;;;;;;;;;;5053732;28;20279;-76
2023/10/04 11:12:50;;;;;;;13.10;5.90;;;;;;;;;;5054233;28;20245;-76
2023/10/04 11:15:20;;;;;;;15.50;6.47;;;;;;;;;;5054652;28;20435;-76
2023/10/04 11:17:46;;;;;;;16.23;5.77;;;;;;;;;;5054379;28;20172;-76
2023/10/04 11:20:17;;;;;;;16.33;6.30;;;;;;;;;;5052446;28;20526;-76
2023/10/04 11:22:44;;;;;;;12.93;5.63;;;;;;;;;;5061588;28;20460;-76
2023/10/04 11:25:13;;;;;;;16.13;5.95;;;;;;;;;;5064375;28;20420;-76
2023/10/04 11:27:41;;;;;;;12.97;5.07;;;;;;;;;;5038078;28;20192;-76
2023/10/04 11:30:07;;;;;;;14.27;6.20;;;;;;;;;;5049401;28;20409;-76
2023/10/04 11:32:33;;;;;;;14.07;6.10;;;;;;;;;;5049494;28;20409;-76
2023/10/04 11:35:07;;;;;;;11.17;5.70;;;;;;;;;;5050317;28;20188;-76
2023/10/04 11:37:33;;;;;;;12.10;5.13;;;;;;;;;;5037493;28;20183;-76
2023/10/04 11:40:00;;;;;;;13.63;5.73;;;;;;;;;;5053781;28;20258;-76
2023/10/04 11:42:26;;;;;;;10.73;5.33;;;;;;;;;;5054371;28;20180;-76
2023/10/04 11:44:53;;;;;;;13.45;6.00;;;;;;;;;;5035070;28;20438;-79
2023/10/04 11:47:32;;;;;;;11.70;5.60;;;;;;;;;;5036982;28;20180;-80
2023/10/04 11:49:59;;;;;;;13.10;6.20;;;;;;;;;;5050752;28;20211;-79
2023/10/04 11:52:29;;;;;;;15.10;5.53;;;;;;;;;;5053270;28;20202;-78
2023/10/04 11:54:55;;;;;;;13.18;5.82;;;;;;;;;;5053655;28;20419;-79
2023/10/04 11:57:25;;;;;;;12.43;5.63;;;;;;;;;;5052423;28;20224;-79
2023/10/04 11:59:51;;;;;;;13.03;5.67;;;;;;;;;;5054484;28;20207;-79
2023/10/04 12:02:18;;;;;;;11.13;5.87;;;;;;;;;;5053222;28;20267;-79
2023/10/04 12:04:46;;;;;;;11.63;5.80;;;;;;;;;;5052818;28;20184;-80
2023/10/04 12:07:12;;;;;;;14.13;5.77;;;;;;;;;;5053166;28;20165;-80
2023/10/04 12:09:38;;;;;;;10.03;5.77;;;;;;;;;;5037496;28;20180;-79
2023/10/04 12:12:07;;;;;;;8.60;5.03;;;;;;;;;;5058640;22;20243;-79
2023/10/04 12:14:34;;;;;;;12.87;6.23;;;;;;;;;;5055644;28;20168;-79
2023/10/04 12:17:03;;;;;;;13.97;6.13;;;;;;;;;;5040461;28;20172;-79
2023/10/04 12:19:30;;;;;;;11.20;5.73;;;;;;;;;;5058313;28;20192;-79
2023/10/04 12:21:57;;;;;;;12.87;6.00;;;;;;;;;;5057292;28;20184;-80
2023/10/04 12:24:23;;;;;;;11.43;5.50;;;;;;;;;;5040266;28;20180;-80
2023/10/04 12:26:55;;;;;;;10.37;5.90;;;;;;;;;;5058249;28;20176;-80
2023/10/04 12:29:22;;;;;;;10.93;5.50;;;;;;;;;;5056637;28;20267;-80
2023/10/04 12:31:50;;;;;;;12.97;5.77;;;;;;;;;;5056871;28;20241;-79
2023/10/04 12:34:16;;;;;;;16.63;5.70;;;;;;;;;;5040510;28;20191;-77
2023/10/04 12:36:42;;;;;;;11.80;5.77;;;;;;;;;;5056190;28;20176;-76
2023/10/04 12:39:08;;;;;;;10.63;4.93;;;;;;;;;;5056067;28;20208;-77
2023/10/04 12:41:34;;;;;;;14.00;5.60;;;;;;;;;;5056103;28;20180;-77
2023/10/04 12:44:02;;;;;;;9.70;5.43;;;;;;;;;;5056822;28;20164;-77
2023/10/04 12:46:28;;;;;;;9.80;5.37;;;;;;;;;;5057272;28;20179;-76
2023/10/04 12:48:54;;;;;;;13.57;5.80;;;;;;;;;;5040281;28;20183;-77
2023/10/04 12:51:20;;;;;;;14.17;5.50;;;;;;;;;;5039797;28;20195;-77
2023/10/04 12:53:46;;;;;;;16.50;5.87;;;;;;;;;;5039463;28;20191;-76
2023/10/04 12:56:13;;;;;;;13.23;6.23;;;;;;;;;;5033952;28;20275;-76
2023/10/04 12:58:39;;;;;;;11.23;5.53;;;;;;;;;;5019595;28;20173;-76
2023/10/04 13:01:06;;;;;;;11.73;5.70;;;;;;;;;;5037087;28;20204;-77
2023/10/04 13:03:32;;;;;;;12.70;5.93;;;;;;;;;;5020240;28;20177;-76
2023/10/04 13:05:59;;;;;;;12.50;5.87;;;;;;;;;;5019260;28;20181;-76
2023/10/04 13:08:25;;;;;;;12.17;5.57;;;;;;;;;;5035639;28;20319;-79
2023/10/04 13:10:51;;;;;;;11.70;5.70;;;;;;;;;;5035616;28;20181;-79
2023/10/04 13:13:18;;;;;;;12.23;5.70;;;;;;;;;;5019055;28;20327;-76
2023/10/04 13:15:44;;;;;;;11.73;5.40;;;;;;;;;;5035786;28;20188;-76
2023/10/04 13:18:11;;;;;;;11.90;5.50;;;;;;;;;;5019208;28;20192;-77
2023/10/04 13:20:40;;;;;;;11.73;5.13;;;;;;;;;;5035726;28;20246;-76
2023/10/04 13:23:06;;;;;;;14.30;5.43;;;;;;;;;;5036146;28;20180;-76
2023/10/04 13:25:33;;;;;;;16.77;5.17;;;;;;;;;;5034492;28;20177;-76
2023/10/04 13:28:00;;;;;;;10.33;5.03;;;;;;;;;;5019451;28;20173;-76
2023/10/04 13:30:27;;;;;;;10.57;5.00;;;;;;;;;;5035628;28;20223;-77
2023/10/04 13:32:54;;;;;;;9.83;4.80;;;;;;;;;;5019127;28;20191;-76
2023/10/04 13:35:20;;;;;;;12.73;5.00;;;;;;;;;;5035121;28;20256;-76
2023/10/04 13:37:47;;;;;;;13.53;5.43;;;;;;;;;;5035004;28;20183;-76
2023/10/04 13:40:20;;;;;;;9.03;4.87;;;;;;;;;;5034839;28;20208;-76
2023/10/04 13:42:48;;;;;;;11.50;4.93;;;;;;;;;;5035209;28;20177;-76
2023/10/04 13:45:14;;;;;;;12.23;4.90;;;;;;;;;;5035576;28;20177;-76
2023/10/04 13:47:41;;;;;;;14.17;4.47;;;;;;;;;;5018418;28;20173;-76
2023/10/04 13:50:08;;;;;;;10.70;4.17;;;;;;;;;;5018244;28;20181;-76
2023/10/04 13:52:34;;;;;;;12.30;4.33;;;;;;;;;;5018784;28;20193;-76
2023/10/04 13:55:00;;;;;;;13.33;4.10;;;;;;;;;;5018497;28;20184;-77
2023/10/04 13:57:26;;;;;;;9.90;3.80;;;;;;;;;;5017975;28;20181;-76
2023/10/04 13:59:52;;;;;;;8.37;3.90;;;;;;;;;;5018620;28;20216;-79
2023/10/04 14:02:19;;;;;;;11.83;4.07;;;;;;;;;;5034940;28;20210;-79
2023/10/04 14:04:46;;;;;;;10.20;3.90;;;;;;;;;;5055063;28;20180;-80
2023/10/04 14:07:13;;;;;;;8.00;3.70;;;;;;;;;;5063900;28;20205;-80
2023/10/04 14:09:40;;;;;;;10.43;3.83;;;;;;;;;;5042946;28;20187;-77
2023/10/04 14:12:06;;;;;;;9.53;3.77;;;;;;;;;;5056011;28;20236;-77
2023/10/04 14:14:32;;;;;;;11.37;4.03;;;;;;;;;;5055599;28;20208;-77
2023/10/04 14:17:04;;;;;;;9.43;3.60;;;;;;;;;;5037870;28;20194;-78
2023/10/04 14:19:31;;;;;;;9.27;3.77;;;;;;;;;;5055581;28;20203;-77
2023/10/04 14:21:58;;;;;;;11.70;4.23;;;;;;;;;;5052677;28;20176;-77
2023/10/04 14:24:24;;;;;;;10.77;3.40;;;;;;;;;;5033994;28;20279;-77
2023/10/04 14:26:53;;;;;;;11.43;3.60;;;;;;;;;;5054430;28;20176;-77
2023/10/04 14:29:20;;;;;;;7.60;3.27;;;;;;;;;;5038470;28;20195;-77
2023/10/04 14:31:46;;;;;;;7.23;3.00;;;;;;;;;;5038000;28;20196;-77
2023/10/04 14:34:12;;;;;;;9.20;3.40;;;;;;;;;;5043947;28;20192;-77
2023/10/04 14:36:38;;;;;;;11.00;3.47;;;;;;;;;;5038078;28;20222;-77
2023/10/04 14:39:08;;;;;;;9.60;3.33;;;;;;;;;;5045041;28;20199;-77
2023/10/04 14:41:34;;;;;;;9.47;3.50;;;;;;;;;;5053762;28;20203;-77
2023/10/04 14:44:00;;;;;;;11.27;4.10;;;;;;;;;;5052802;28;20188;-77